Friday, April 20, 2018, 6:38 AM EDT
Back to Local

KSMQ, Somerville Somerset Airport

Location: Bedminster, NJ, United States Lat: 40.617
Local Time: 6:38 AM EDT (10:38 GMT) Lon: -74.667
Time Zone: US/Eastern Elev: 104 ft

Show me the last for .
Show Decoded

2018-04-20 05:53 METAR KSMQ 200953Z AUTO 31007G16KT 260V330 10SM OVC055 03/M06 A3011 RMK AO2
                 SLP198 T00281056 =
2018-04-20 04:53 METAR KSMQ 200853Z AUTO 29006KT 10SM OVC055 02/M04 A3009 RMK AO2 SLP191
                 T00221039 51016 =
2018-04-20 03:53 METAR KSMQ 200753Z AUTO VRB04G14KT 10SM BKN047 02/M04 A3008 RMK AO2 SLP188
                 T00221039 =
2018-04-20 02:53 METAR KSMQ 200653Z AUTO VRB04KT 10SM BKN070 02/M05 A3006 RMK AO2 SLP180
                 T00221050 =
2018-04-20 01:53 METAR KSMQ 200553Z AUTO 32009G14KT 10SM CLR 03/M04 A3004 RMK AO2 SLP175
                 T00281044 10050 20022 50006 =
2018-04-20 00:53 METAR KSMQ 200453Z AUTO 31008KT 10SM FEW050 SCT080 03/M04 A3005 RMK AO2 SLP177
                 T00281039 400780028 =
2018-04-19 23:53 METAR KSMQ 200353Z AUTO 30006KT 10SM BKN080 03/M03 A3003 RMK AO2 SLP172
                 T00331033 =
2018-04-19 22:53 METAR KSMQ 200253Z AUTO 30011G20KT 10SM OVC070 04/M03 A3002 RMK AO2 SLP168
                 T00391033 51031 =
2018-04-19 21:53 METAR KSMQ 200153Z AUTO 31007KT 10SM SCT045 04/M02 A3001 RMK AO2 SLP162
                 T00391022 =
2018-04-19 20:53 METAR KSMQ 200053Z AUTO 31013G23KT 270V340 10SM FEW047 SCT060 04/M03 A2998 RMK
                 AO2 SLP154 T00441028 =
2018-04-19 19:53 METAR KSMQ 192353Z AUTO 31009KT 10SM CLR 05/M03 A2993 RMK AO2 SLP137 60002
                 T00501028 10078 20050 53033 =
2018-04-19 18:53 METAR KSMQ 192253Z AUTO 31013G21KT 10SM SCT060 SCT075 07/M02 A2989 RMK AO2
                 SLP123 T00671022 =
2018-04-19 17:53 METAR KSMQ 192153Z AUTO 30009G21KT 10SM OVC070 07/M01 A2985 RMK AO2 SLP109
                 T00721011 =
2018-04-19 16:53 METAR KSMQ 192053Z AUTO 34015G23KT 10SM BKN048 OVC065 07/M01 A2983 RMK AO2 RAE03
                 PRESRR SLP104 P0000 60002 T00671006 53022 =
2018-04-19 15:53 METAR KSMQ 191953Z AUTO 34009KT 9SM -RA BKN030 BKN037 OVC048 06/02 A2980 RMK AO2
                 RAE1858B48 SLP091 P0001 T00610022 =
2018-04-19 15:40 METAR KSMQ 191940Z AUTO 33010G16KT 10SM BKN030 OVC040 07/02 A2979 RMK AO2
                 RAE1858 P0000 T00720017 =
2018-04-19 15:27 METAR KSMQ 191927Z AUTO VRB06G16KT 10SM BKN029 BKN038 07/03 A2978 RMK AO2
                 RAE1858 P0000 T00720028 =
2018-04-19 15:01 METAR KSMQ 191901Z AUTO 34009G16KT 10SM FEW023 BKN047 BKN055 07/02 A2977 RMK AO2
                 RAE1858 P0000 T00670022 =
2018-04-19 14:53 METAR KSMQ 191853Z AUTO 31009KT 10SM -RA FEW020 BKN025 OVC060 07/04 A2978 RMK
                 AO2 SLP086 P0001 T00670039 =
2018-04-19 13:53 METAR KSMQ 191753Z AUTO 31008KT 8SM -RA SCT017 BKN025 OVC033 06/04 A2977 RMK AO2
                 SLP081 P0004 60005 T00560039 10067 20050 53017 =
2018-04-19 13:13 METAR KSMQ 191713Z AUTO 5SM -RA BR SCT018 BKN023 OVC040 06/04 A2974 RMK AO2
                 P0002 T00560039 =
2018-04-19 12:53 METAR KSMQ 191653Z AUTO 29005KT 4SM -RA BR FEW015 SCT030 OVC043 06/04 A2973 RMK
                 AO2 RAB31 SLP069 P0001 T00560039 =
2018-04-19 11:53 METAR KSMQ 191553Z AUTO 10SM FEW017 OVC039 06/03 A2971 RMK AO2 RAE23 SLP060
                 P0000 T00610028 =
2018-04-19 10:53 METAR KSMQ 191453Z AUTO 32007KT 10SM -RA OVC042 06/03 A2972 RMK AO2 RAE10B47
                 SLP064 P0000 60000 T00560033 51027 =
2018-04-19 09:53 METAR KSMQ 191353Z AUTO 01006KT 10SM -RA FEW014 OVC042 06/04 A2968 RMK AO2 RAB40
                 SLP050 P0000 T00610039 =
2018-04-19 09:13 METAR KSMQ 191313Z AUTO 10SM SCT015 OVC044 06/04 A2968 RMK AO2 T00610044 =
2018-04-19 09:11 METAR KSMQ 191311Z AUTO 35005KT 10SM BKN014 OVC044 06/04 A2968 RMK AO2 T00610044
                 =
2018-04-19 08:53 METAR KSMQ 191253Z AUTO 36006KT 10SM FEW014 BKN045 06/04 A2969 RMK AO2 SLP054
                 T00610044 =
2018-04-19 08:29 METAR KSMQ 191229Z AUTO 34008KT 10SM FEW011 SCT046 06/04 A2969 RMK AO2 T00610044
                 =
2018-04-19 08:06 METAR KSMQ 191206Z AUTO 35006KT 10SM BKN010 BKN120 05/04 A2966 RMK AO2 PRESRR
                 T00500044 =
2018-04-19 07:53 METAR KSMQ 191153Z AUTO 35008KT 9SM FEW010 BKN110 05/04 A2964 RMK AO2 RAE27
                 SLP037 P0000 60015 70015 T00500039 10072 20044 58024 =
2018-04-19 06:53 METAR KSMQ 191053Z AUTO 09004KT 8SM -RA BKN080 OVC095 04/04 A2964 RMK AO2 PRESFR
                 SLP038 P0003 T00440039 =

Support USWX by starting your Amazon purchase here.